ilmateenistus.ee keskkonnaagentuur.ee
EETN Tallinn
FTEO31 EETN 271700
TAF EETN 271701Z 2718/2818 12008KT 8000 BKN005 BKN015 TEMPO 2718/2724
    2000 SNRA BKN003 BECMG 2800/2802 01012KT TEMPO 2800/2805 1000 +SN BR
    BKN003 PROB40 TEMPO 2800/2806 -FZRA TEMPO 2805/2810 3000 SN BECMG
    2810/2812 35017G27KT SCT010 BKN020=

METAR EETN 272220Z 07005KT 3300 SN BKN004 OVC014 00/00 Q0987=
Tallinn
EEKA Kärdla
METAR EEKA 272220Z NIL=
Kärdla
EEKE Kuressaare
METAR EEKE 272220Z AUTO 01002KT 0700NDV R17/0800N R35/0900N -RA FG VV004 02/01 Q0986=
Kuressaare
EEPU Pärnu
METAR EEPU 272220Z NIL=
Pärnu
EETU Tartu
METAR EETU 272220Z AUTO 16005KT 9999 OVC008/// 01/00 Q0988=
Tartu
EEEI Ämari
SPECI EEEI 272218Z AUTO 06004KT 3200 SN BKN004/// OVC009/// 00/M00 Q0987=
Ämari